sensor_id;sensor_type;location;lat;lon;timestamp;P1;durP1;ratioP1;P2;durP2;ratioP2
71080;SDS011;58740;50.672;18.690;2023-06-26T00:02:24;11.30;;;6.40;;
71080;SDS011;58740;50.672;18.690;2023-06-26T00:04:51;11.70;;;6.80;;
71080;SDS011;58740;50.672;18.690;2023-06-26T00:07:21;12.30;;;7.00;;
71080;SDS011;58740;50.672;18.690;2023-06-26T00:09:49;11.80;;;6.20;;
71080;SDS011;58740;50.672;18.690;2023-06-26T00:12:17;11.80;;;6.60;;
71080;SDS011;58740;50.672;18.690;2023-06-26T00:14:45;11.70;;;6.40;;
71080;SDS011;58740;50.672;18.690;2023-06-26T00:17:12;15.40;;;6.80;;
71080;SDS011;58740;50.672;18.690;2023-06-26T00:19:40;12.70;;;6.80;;
71080;SDS011;58740;50.672;18.690;2023-06-26T00:22:08;12.00;;;7.20;;
71080;SDS011;58740;50.672;18.690;2023-06-26T00:24:36;15.20;;;6.70;;
71080;SDS011;58740;50.672;18.690;2023-06-26T00:27:03;13.30;;;7.00;;
71080;SDS011;58740;50.672;18.690;2023-06-26T00:29:31;12.80;;;6.30;;
71080;SDS011;58740;50.672;18.690;2023-06-26T00:31:59;14.20;;;6.60;;
71080;SDS011;58740;50.672;18.690;2023-06-26T00:34:27;11.40;;;6.60;;
71080;SDS011;58740;50.672;18.690;2023-06-26T00:36:55;13.10;;;6.80;;
71080;SDS011;58740;50.672;18.690;2023-06-26T00:39:22;11.70;;;7.00;;
71080;SDS011;58740;50.672;18.690;2023-06-26T00:41:53;13.80;;;6.30;;
71080;SDS011;58740;50.672;18.690;2023-06-26T00:44:24;11.20;;;6.50;;
71080;SDS011;58740;50.672;18.690;2023-06-26T00:46:52;13.30;;;6.60;;
71080;SDS011;58740;50.672;18.690;2023-06-26T00:49:21;12.60;;;6.50;;
71080;SDS011;58740;50.672;18.690;2023-06-26T00:51:49;11.00;;;6.30;;
71080;SDS011;58740;50.672;18.690;2023-06-26T00:54:17;13.30;;;6.30;;
71080;SDS011;58740;50.672;18.690;2023-06-26T00:56:47;11.40;;;6.30;;
71080;SDS011;58740;50.672;18.690;2023-06-26T00:59:16;11.60;;;6.80;;
71080;SDS011;58740;50.672;18.690;2023-06-26T01:01:43;13.80;;;7.10;;
71080;SDS011;58740;50.672;18.690;2023-06-26T01:04:11;12.20;;;6.70;;
71080;SDS011;58740;50.672;18.690;2023-06-26T01:06:46;13.90;;;7.10;;
71080;SDS011;58740;50.672;18.690;2023-06-26T01:09:20;13.00;;;7.70;;
71080;SDS011;58740;50.672;18.690;2023-06-26T01:11:50;12.20;;;6.50;;
71080;SDS011;58740;50.672;18.690;2023-06-26T01:14:18;13.90;;;7.20;;
71080;SDS011;58740;50.672;18.690;2023-06-26T01:16:46;12.40;;;7.00;;
71080;SDS011;58740;50.672;18.690;2023-06-26T01:19:19;14.60;;;7.30;;
71080;SDS011;58740;50.672;18.690;2023-06-26T01:22:11;11.80;;;6.70;;
71080;SDS011;58740;50.672;18.690;2023-06-26T01:25:48;12.40;;;7.00;;
71080;SDS011;58740;50.672;18.690;2023-06-26T01:28:14;12.50;;;7.50;;
71080;SDS011;58740;50.672;18.690;2023-06-26T01:30:45;13.00;;;7.50;;
71080;SDS011;58740;50.672;18.690;2023-06-26T01:33:13;13.60;;;7.50;;
71080;SDS011;58740;50.672;18.690;2023-06-26T01:35:42;14.00;;;7.70;;
71080;SDS011;58740;50.672;18.690;2023-06-26T01:38:18;15.90;;;8.20;;
71080;SDS011;58740;50.672;18.690;2023-06-26T01:40:47;14.10;;;6.70;;
71080;SDS011;58740;50.672;18.690;2023-06-26T01:43:29;12.40;;;7.00;;
71080;SDS011;58740;50.672;18.690;2023-06-26T01:46:02;11.10;;;12.50;;
71080;SDS011;58740;50.672;18.690;2023-06-26T01:48:40;12.50;;;7.70;;
71080;SDS011;58740;50.672;18.690;2023-06-26T01:51:14;12.20;;;7.30;;
71080;SDS011;58740;50.672;18.690;2023-06-26T01:53:50;12.00;;;6.30;;
71080;SDS011;58740;50.672;18.690;2023-06-26T01:56:23;12.40;;;6.40;;
71080;SDS011;58740;50.672;18.690;2023-06-26T01:58:53;12.40;;;7.20;;
71080;SDS011;58740;50.672;18.690;2023-06-26T02:01:22;11.80;;;6.90;;
71080;SDS011;58740;50.672;18.690;2023-06-26T02:03:50;11.60;;;6.90;;
71080;SDS011;58740;50.672;18.690;2023-06-26T02:06:18;13.30;;;6.60;;
71080;SDS011;58740;50.672;18.690;2023-06-26T02:08:46;13.70;;;6.90;;
71080;SDS011;58740;50.672;18.690;2023-06-26T02:11:13;14.10;;;7.00;;
71080;SDS011;58740;50.672;18.690;2023-06-26T02:13:41;12.40;;;6.40;;
71080;SDS011;58740;50.672;18.690;2023-06-26T02:16:09;12.20;;;7.00;;
71080;SDS011;58740;50.672;18.690;2023-06-26T02:18:36;13.10;;;7.30;;
71080;SDS011;58740;50.672;18.690;2023-06-26T02:21:04;11.50;;;6.30;;
71080;SDS011;58740;50.672;18.690;2023-06-26T02:23:32;12.30;;;7.10;;
71080;SDS011;58740;50.672;18.690;2023-06-26T02:26:00;10.80;;;6.20;;
71080;SDS011;58740;50.672;18.690;2023-06-26T02:28:27;12.20;;;6.80;;
71080;SDS011;58740;50.672;18.690;2023-06-26T02:30:55;11.20;;;6.30;;
71080;SDS011;58740;50.672;18.690;2023-06-26T02:33:23;12.10;;;7.30;;
71080;SDS011;58740;50.672;18.690;2023-06-26T02:35:51;11.80;;;6.40;;
71080;SDS011;58740;50.672;18.690;2023-06-26T02:38:18;10.90;;;6.30;;
71080;SDS011;58740;50.672;18.690;2023-06-26T02:40:46;13.70;;;6.50;;
71080;SDS011;58740;50.672;18.690;2023-06-26T02:43:14;13.40;;;6.90;;
71080;SDS011;58740;50.672;18.690;2023-06-26T02:45:42;11.50;;;6.60;;
71080;SDS011;58740;50.672;18.690;2023-06-26T02:48:10;14.00;;;7.00;;
71080;SDS011;58740;50.672;18.690;2023-06-26T02:50:37;12.30;;;6.10;;
71080;SDS011;58740;50.672;18.690;2023-06-26T02:53:05;12.10;;;6.10;;
71080;SDS011;58740;50.672;18.690;2023-06-26T02:55:34;10.30;;;5.90;;
71080;SDS011;58740;50.672;18.690;2023-06-26T02:58:02;13.10;;;6.90;;
71080;SDS011;58740;50.672;18.690;2023-06-26T03:00:29;10.50;;;5.60;;
71080;SDS011;58740;50.672;18.690;2023-06-26T03:02:57;12.30;;;6.40;;
71080;SDS011;58740;50.672;18.690;2023-06-26T03:05:25;12.50;;;6.30;;
71080;SDS011;58740;50.672;18.690;2023-06-26T03:07:53;10.30;;;6.40;;
71080;SDS011;58740;50.672;18.690;2023-06-26T03:10:21;11.30;;;6.50;;
71080;SDS011;58740;50.672;18.690;2023-06-26T03:12:49;10.50;;;5.60;;
71080;SDS011;58740;50.672;18.690;2023-06-26T03:15:16;13.00;;;6.60;;
71080;SDS011;58740;50.672;18.690;2023-06-26T03:17:44;11.50;;;6.70;;
71080;SDS011;58740;50.672;18.690;2023-06-26T03:20:12;12.90;;;6.60;;
71080;SDS011;58740;50.672;18.690;2023-06-26T03:22:40;11.80;;;6.50;;
71080;SDS011;58740;50.672;18.690;2023-06-26T03:25:08;14.60;;;6.30;;
71080;SDS011;58740;50.672;18.690;2023-06-26T03:27:35;12.20;;;6.40;;
71080;SDS011;58740;50.672;18.690;2023-06-26T03:30:03;11.10;;;6.90;;
71080;SDS011;58740;50.672;18.690;2023-06-26T03:32:31;10.50;;;6.60;;
71080;SDS011;58740;50.672;18.690;2023-06-26T03:34:59;12.40;;;6.70;;
71080;SDS011;58740;50.672;18.690;2023-06-26T03:37:33;14.50;;;7.40;;
71080;SDS011;58740;50.672;18.690;2023-06-26T03:40:01;11.80;;;6.40;;
71080;SDS011;58740;50.672;18.690;2023-06-26T03:42:30;11.50;;;6.10;;
71080;SDS011;58740;50.672;18.690;2023-06-26T03:44:58;11.20;;;6.50;;
71080;SDS011;58740;50.672;18.690;2023-06-26T03:47:26;11.20;;;6.50;;
71080;SDS011;58740;50.672;18.690;2023-06-26T03:49:53;11.90;;;6.50;;
71080;SDS011;58740;50.672;18.690;2023-06-26T03:52:21;11.60;;;6.40;;
71080;SDS011;58740;50.672;18.690;2023-06-26T03:54:49;13.30;;;7.30;;
71080;SDS011;58740;50.672;18.690;2023-06-26T03:57:17;12.30;;;7.20;;
71080;SDS011;58740;50.672;18.690;2023-06-26T03:59:44;13.20;;;7.30;;
71080;SDS011;58740;50.672;18.690;2023-06-26T04:02:12;15.20;;;8.50;;
71080;SDS011;58740;50.672;18.690;2023-06-26T04:04:40;11.90;;;7.70;;
71080;SDS011;58740;50.672;18.690;2023-06-26T04:07:08;14.30;;;7.40;;
71080;SDS011;58740;50.672;18.690;2023-06-26T04:09:36;12.20;;;7.30;;
71080;SDS011;58740;50.672;18.690;2023-06-26T04:12:04;13.50;;;7.70;;
71080;SDS011;58740;50.672;18.690;2023-06-26T04:14:34;12.70;;;7.70;;
71080;SDS011;58740;50.672;18.690;2023-06-26T04:17:02;12.90;;;7.80;;
71080;SDS011;58740;50.672;18.690;2023-06-26T04:19:30;14.10;;;8.70;;
71080;SDS011;58740;50.672;18.690;2023-06-26T04:21:59;14.30;;;8.40;;
71080;SDS011;58740;50.672;18.690;2023-06-26T04:24:27;16.50;;;7.90;;
71080;SDS011;58740;50.672;18.690;2023-06-26T04:26:55;15.60;;;8.70;;
71080;SDS011;58740;50.672;18.690;2023-06-26T04:29:26;13.70;;;8.30;;
71080;SDS011;58740;50.672;18.690;2023-06-26T04:31:54;15.50;;;7.90;;
71080;SDS011;58740;50.672;18.690;2023-06-26T04:34:27;12.50;;;7.60;;
71080;SDS011;58740;50.672;18.690;2023-06-26T04:36:55;14.30;;;7.80;;
71080;SDS011;58740;50.672;18.690;2023-06-26T04:39:23;12.70;;;7.50;;
71080;SDS011;58740;50.672;18.690;2023-06-26T04:41:51;12.70;;;7.60;;
71080;SDS011;58740;50.672;18.690;2023-06-26T04:44:20;13.60;;;8.00;;
71080;SDS011;58740;50.672;18.690;2023-06-26T04:46:48;13.20;;;7.60;;
71080;SDS011;58740;50.672;18.690;2023-06-26T04:49:19;13.60;;;8.30;;
71080;SDS011;58740;50.672;18.690;2023-06-26T04:51:47;14.00;;;8.00;;
71080;SDS011;58740;50.672;18.690;2023-06-26T04:54:16;14.00;;;9.20;;
71080;SDS011;58740;50.672;18.690;2023-06-26T04:56:44;14.80;;;7.60;;
71080;SDS011;58740;50.672;18.690;2023-06-26T04:59:14;13.90;;;7.50;;
71080;SDS011;58740;50.672;18.690;2023-06-26T05:01:42;13.40;;;8.30;;
71080;SDS011;58740;50.672;18.690;2023-06-26T05:04:11;14.80;;;8.20;;
71080;SDS011;58740;50.672;18.690;2023-06-26T05:06:39;14.70;;;7.90;;
71080;SDS011;58740;50.672;18.690;2023-06-26T05:09:07;12.20;;;7.40;;
71080;SDS011;58740;50.672;18.690;2023-06-26T05:11:35;13.00;;;7.70;;
71080;SDS011;58740;50.672;18.690;2023-06-26T05:14:02;14.10;;;7.40;;
71080;SDS011;58740;50.672;18.690;2023-06-26T05:16:30;13.00;;;7.70;;
71080;SDS011;58740;50.672;18.690;2023-06-26T05:18:58;16.60;;;7.90;;
71080;SDS011;58740;50.672;18.690;2023-06-26T05:21:26;13.60;;;7.60;;
71080;SDS011;58740;50.672;18.690;2023-06-26T05:23:57;13.60;;;8.00;;
71080;SDS011;58740;50.672;18.690;2023-06-26T05:26:25;12.60;;;7.40;;
71080;SDS011;58740;50.672;18.690;2023-06-26T05:28:54;11.90;;;7.10;;
71080;SDS011;58740;50.672;18.690;2023-06-26T05:31:23;15.20;;;8.50;;
71080;SDS011;58740;50.672;18.690;2023-06-26T05:33:53;12.70;;;7.60;;
71080;SDS011;58740;50.672;18.690;2023-06-26T05:36:24;14.30;;;7.90;;
71080;SDS011;58740;50.672;18.690;2023-06-26T05:38:52;12.00;;;7.50;;
71080;SDS011;58740;50.672;18.690;2023-06-26T05:41:20;12.80;;;7.30;;
71080;SDS011;58740;50.672;18.690;2023-06-26T05:43:48;11.40;;;6.70;;
71080;SDS011;58740;50.672;18.690;2023-06-26T05:46:16;14.60;;;7.40;;
71080;SDS011;58740;50.672;18.690;2023-06-26T05:48:44;12.70;;;6.40;;
71080;SDS011;58740;50.672;18.690;2023-06-26T05:51:12;11.70;;;7.20;;
71080;SDS011;58740;50.672;18.690;2023-06-26T05:53:40;13.50;;;7.00;;
71080;SDS011;58740;50.672;18.690;2023-06-26T05:56:09;14.90;;;7.50;;
71080;SDS011;58740;50.672;18.690;2023-06-26T05:58:37;11.50;;;6.50;;
71080;SDS011;58740;50.672;18.690;2023-06-26T06:01:05;13.00;;;6.90;;
71080;SDS011;58740;50.672;18.690;2023-06-26T06:03:33;11.70;;;6.60;;
71080;SDS011;58740;50.672;18.690;2023-06-26T06:06:01;10.90;;;7.20;;
71080;SDS011;58740;50.672;18.690;2023-06-26T06:08:29;14.50;;;7.00;;
71080;SDS011;58740;50.672;18.690;2023-06-26T06:10:57;12.00;;;7.00;;
71080;SDS011;58740;50.672;18.690;2023-06-26T06:13:25;11.60;;;6.50;;
71080;SDS011;58740;50.672;18.690;2023-06-26T06:15:53;11.80;;;6.70;;
71080;SDS011;58740;50.672;18.690;2023-06-26T06:18:20;9.80;;;5.50;;
71080;SDS011;58740;50.672;18.690;2023-06-26T06:20:48;9.50;;;5.50;;
71080;SDS011;58740;50.672;18.690;2023-06-26T06:23:16;11.60;;;6.20;;
71080;SDS011;58740;50.672;18.690;2023-06-26T06:25:44;13.30;;;6.60;;
71080;SDS011;58740;50.672;18.690;2023-06-26T06:28:11;9.60;;;5.40;;
71080;SDS011;58740;50.672;18.690;2023-06-26T06:30:39;11.10;;;6.30;;
71080;SDS011;58740;50.672;18.690;2023-06-26T06:33:13;9.80;;;6.10;;
71080;SDS011;58740;50.672;18.690;2023-06-26T06:35:41;10.30;;;6.40;;
71080;SDS011;58740;50.672;18.690;2023-06-26T06:38:09;11.80;;;6.30;;
71080;SDS011;58740;50.672;18.690;2023-06-26T06:40:37;10.90;;;6.10;;
71080;SDS011;58740;50.672;18.690;2023-06-26T06:43:06;10.40;;;6.40;;
71080;SDS011;58740;50.672;18.690;2023-06-26T06:45:33;10.10;;;6.20;;
71080;SDS011;58740;50.672;18.690;2023-06-26T06:48:01;10.20;;;5.90;;
71080;SDS011;58740;50.672;18.690;2023-06-26T06:50:29;13.10;;;6.20;;
71080;SDS011;58740;50.672;18.690;2023-06-26T06:52:57;11.60;;;6.60;;
71080;SDS011;58740;50.672;18.690;2023-06-26T06:55:24;11.10;;;6.80;;
71080;SDS011;58740;50.672;18.690;2023-06-26T06:57:53;11.10;;;6.50;;
71080;SDS011;58740;50.672;18.690;2023-06-26T07:00:20;10.40;;;5.60;;
71080;SDS011;58740;50.672;18.690;2023-06-26T07:02:49;12.20;;;6.60;;
71080;SDS011;58740;50.672;18.690;2023-06-26T07:05:17;9.50;;;6.00;;
71080;SDS011;58740;50.672;18.690;2023-06-26T07:07:45;8.20;;;5.30;;
71080;SDS011;58740;50.672;18.690;2023-06-26T07:10:13;9.20;;;5.50;;
71080;SDS011;58740;50.672;18.690;2023-06-26T07:12:42;10.30;;;6.20;;
71080;SDS011;58740;50.672;18.690;2023-06-26T07:15:11;10.20;;;5.50;;
71080;SDS011;58740;50.672;18.690;2023-06-26T07:17:39;9.40;;;5.50;;
71080;SDS011;58740;50.672;18.690;2023-06-26T07:20:07;8.10;;;4.80;;
71080;SDS011;58740;50.672;18.690;2023-06-26T07:22:36;9.20;;;4.80;;
71080;SDS011;58740;50.672;18.690;2023-06-26T07:25:05;7.50;;;4.70;;
71080;SDS011;58740;50.672;18.690;2023-06-26T07:27:38;8.30;;;4.30;;
71080;SDS011;58740;50.672;18.690;2023-06-26T07:30:07;11.00;;;5.40;;
71080;SDS011;58740;50.672;18.690;2023-06-26T07:32:39;9.00;;;4.90;;
71080;SDS011;58740;50.672;18.690;2023-06-26T07:35:10;7.90;;;4.40;;
71080;SDS011;58740;50.672;18.690;2023-06-26T07:37:38;8.70;;;4.90;;
71080;SDS011;58740;50.672;18.690;2023-06-26T07:40:06;9.10;;;5.20;;
71080;SDS011;58740;50.672;18.690;2023-06-26T07:42:34;8.90;;;4.50;;
71080;SDS011;58740;50.672;18.690;2023-06-26T07:45:02;7.00;;;3.80;;
71080;SDS011;58740;50.672;18.690;2023-06-26T07:47:40;6.90;;;4.60;;
71080;SDS011;58740;50.672;18.690;2023-06-26T07:50:08;7.70;;;4.40;;
71080;SDS011;58740;50.672;18.690;2023-06-26T07:52:36;8.20;;;4.80;;
71080;SDS011;58740;50.672;18.690;2023-06-26T07:55:04;7.40;;;4.20;;
71080;SDS011;58740;50.672;18.690;2023-06-26T07:57:33;7.40;;;4.10;;
71080;SDS011;58740;50.672;18.690;2023-06-26T08:00:00;7.80;;;4.20;;
71080;SDS011;58740;50.672;18.690;2023-06-26T08:02:28;6.40;;;4.00;;
71080;SDS011;58740;50.672;18.690;2023-06-26T08:04:56;7.60;;;4.20;;
71080;SDS011;58740;50.672;18.690;2023-06-26T08:07:24;7.30;;;4.10;;
71080;SDS011;58740;50.672;18.690;2023-06-26T08:09:52;9.70;;;4.50;;
71080;SDS011;58740;50.672;18.690;2023-06-26T08:12:20;7.90;;;4.30;;
71080;SDS011;58740;50.672;18.690;2023-06-26T08:14:48;8.60;;;7.60;;
71080;SDS011;58740;50.672;18.690;2023-06-26T08:17:15;8.80;;;3.90;;
71080;SDS011;58740;50.672;18.690;2023-06-26T08:19:43;6.10;;;3.40;;
71080;SDS011;58740;50.672;18.690;2023-06-26T08:22:11;7.40;;;4.20;;
71080;SDS011;58740;50.672;18.690;2023-06-26T08:24:39;7.20;;;3.90;;
71080;SDS011;58740;50.672;18.690;2023-06-26T08:27:06;7.00;;;4.40;;
71080;SDS011;58740;50.672;18.690;2023-06-26T08:29:35;7.80;;;3.70;;
71080;SDS011;58740;50.672;18.690;2023-06-26T08:32:03;5.80;;;3.50;;
71080;SDS011;58740;50.672;18.690;2023-06-26T08:34:31;7.00;;;3.60;;
71080;SDS011;58740;50.672;18.690;2023-06-26T08:36:59;7.10;;;4.00;;
71080;SDS011;58740;50.672;18.690;2023-06-26T08:39:27;6.90;;;3.50;;
71080;SDS011;58740;50.672;18.690;2023-06-26T08:41:55;7.50;;;4.00;;
71080;SDS011;58740;50.672;18.690;2023-06-26T08:44:23;9.20;;;4.20;;
71080;SDS011;58740;50.672;18.690;2023-06-26T08:46:52;9.00;;;4.90;;
71080;SDS011;58740;50.672;18.690;2023-06-26T08:49:21;8.80;;;4.20;;
71080;SDS011;58740;50.672;18.690;2023-06-26T08:52:30;6.50;;;3.80;;
71080;SDS011;58740;50.672;18.690;2023-06-26T08:55:20;6.30;;;3.70;;
71080;SDS011;58740;50.672;18.690;2023-06-26T08:57:51;6.60;;;4.00;;
71080;SDS011;58740;50.672;18.690;2023-06-26T09:00:21;7.50;;;3.80;;
71080;SDS011;58740;50.672;18.690;2023-06-26T09:02:49;6.90;;;3.80;;
71080;SDS011;58740;50.672;18.690;2023-06-26T09:05:18;6.40;;;3.80;;
71080;SDS011;58740;50.672;18.690;2023-06-26T09:07:46;8.80;;;4.40;;
71080;SDS011;58740;50.672;18.690;2023-06-26T09:10:14;6.70;;;3.90;;
71080;SDS011;58740;50.672;18.690;2023-06-26T09:12:46;6.60;;;3.90;;
71080;SDS011;58740;50.672;18.690;2023-06-26T09:15:15;7.10;;;4.00;;
71080;SDS011;58740;50.672;18.690;2023-06-26T09:17:48;8.20;;;4.20;;
71080;SDS011;58740;50.672;18.690;2023-06-26T09:20:16;8.10;;;4.40;;
71080;SDS011;58740;50.672;18.690;2023-06-26T09:22:47;7.70;;;4.00;;
71080;SDS011;58740;50.672;18.690;2023-06-26T09:25:16;7.20;;;3.70;;
71080;SDS011;58740;50.672;18.690;2023-06-26T09:27:45;6.80;;;3.80;;
71080;SDS011;58740;50.672;18.690;2023-06-26T09:30:16;6.80;;;4.30;;
71080;SDS011;58740;50.672;18.690;2023-06-26T09:32:45;7.10;;;4.00;;
71080;SDS011;58740;50.672;18.690;2023-06-26T09:35:14;7.20;;;4.30;;
71080;SDS011;58740;50.672;18.690;2023-06-26T09:37:42;9.80;;;4.00;;
71080;SDS011;58740;50.672;18.690;2023-06-26T09:40:11;6.60;;;3.80;;
71080;SDS011;58740;50.672;18.690;2023-06-26T09:42:39;7.00;;;3.90;;
71080;SDS011;58740;50.672;18.690;2023-06-26T09:45:07;7.30;;;3.80;;
71080;SDS011;58740;50.672;18.690;2023-06-26T09:47:35;6.90;;;3.90;;
71080;SDS011;58740;50.672;18.690;2023-06-26T09:50:03;8.50;;;3.60;;
71080;SDS011;58740;50.672;18.690;2023-06-26T09:52:32;8.10;;;3.50;;
71080;SDS011;58740;50.672;18.690;2023-06-26T09:55:09;8.60;;;4.30;;
71080;SDS011;58740;50.672;18.690;2023-06-26T09:57:38;6.70;;;3.90;;
71080;SDS011;58740;50.672;18.690;2023-06-26T10:00:06;7.50;;;3.80;;
71080;SDS011;58740;50.672;18.690;2023-06-26T10:02:36;9.50;;;4.00;;
71080;SDS011;58740;50.672;18.690;2023-06-26T10:05:05;7.00;;;4.00;;
71080;SDS011;58740;50.672;18.690;2023-06-26T10:07:34;6.40;;;4.10;;
71080;SDS011;58740;50.672;18.690;2023-06-26T10:10:05;5.90;;;3.30;;
71080;SDS011;58740;50.672;18.690;2023-06-26T10:12:35;6.70;;;3.80;;
71080;SDS011;58740;50.672;18.690;2023-06-26T10:15:03;9.00;;;3.90;;
71080;SDS011;58740;50.672;18.690;2023-06-26T10:17:34;7.40;;;3.40;;
71080;SDS011;58740;50.672;18.690;2023-06-26T10:20:06;6.10;;;3.20;;
71080;SDS011;58740;50.672;18.690;2023-06-26T10:22:43;7.20;;;4.10;;
71080;SDS011;58740;50.672;18.690;2023-06-26T10:25:15;8.30;;;3.90;;
71080;SDS011;58740;50.672;18.690;2023-06-26T10:27:52;8.00;;;3.80;;
71080;SDS011;58740;50.672;18.690;2023-06-26T10:30:30;8.30;;;3.80;;
71080;SDS011;58740;50.672;18.690;2023-06-26T10:33:02;6.70;;;3.70;;
71080;SDS011;58740;50.672;18.690;2023-06-26T10:35:31;7.20;;;4.00;;
71080;SDS011;58740;50.672;18.690;2023-06-26T10:38:00;7.80;;;3.80;;
71080;SDS011;58740;50.672;18.690;2023-06-26T10:40:46;7.90;;;4.40;;
71080;SDS011;58740;50.672;18.690;2023-06-26T10:43:19;6.60;;;3.60;;
71080;SDS011;58740;50.672;18.690;2023-06-26T10:45:48;6.90;;;3.90;;
71080;SDS011;58740;50.672;18.690;2023-06-26T10:48:22;6.80;;;3.80;;
71080;SDS011;58740;50.672;18.690;2023-06-26T10:50:50;6.40;;;3.80;;
71080;SDS011;58740;50.672;18.690;2023-06-26T10:55:55;5.70;;;3.60;;
71080;SDS011;58740;50.672;18.690;2023-06-26T11:06:26;7.10;;;3.70;;
71080;SDS011;58740;50.672;18.690;2023-06-26T11:09:00;6.20;;;3.20;;
71080;SDS011;58740;50.672;18.690;2023-06-26T11:14:22;6.80;;;4.00;;
71080;SDS011;58740;50.672;18.690;2023-06-26T11:16:51;6.20;;;3.80;;
71080;SDS011;58740;50.672;18.690;2023-06-26T11:19:20;6.00;;;3.70;;
71080;SDS011;58740;50.672;18.690;2023-06-26T11:21:49;6.30;;;3.40;;
71080;SDS011;58740;50.672;18.690;2023-06-26T11:24:17;6.40;;;3.70;;
71080;SDS011;58740;50.672;18.690;2023-06-26T11:26:45;6.90;;;3.80;;
71080;SDS011;58740;50.672;18.690;2023-06-26T11:29:14;6.80;;;4.00;;
71080;SDS011;58740;50.672;18.690;2023-06-26T11:31:42;5.50;;;3.50;;
71080;SDS011;58740;50.672;18.690;2023-06-26T11:34:11;5.80;;;3.60;;
71080;SDS011;58740;50.672;18.690;2023-06-26T11:36:43;8.20;;;4.10;;
71080;SDS011;58740;50.672;18.690;2023-06-26T11:39:13;6.00;;;3.70;;
71080;SDS011;58740;50.672;18.690;2023-06-26T11:41:41;6.40;;;3.70;;
71080;SDS011;58740;50.672;18.690;2023-06-26T11:44:10;6.40;;;3.60;;
71080;SDS011;58740;50.672;18.690;2023-06-26T11:46:38;7.10;;;3.10;;
71080;SDS011;58740;50.672;18.690;2023-06-26T11:49:06;7.00;;;3.90;;
71080;SDS011;58740;50.672;18.690;2023-06-26T11:51:35;7.00;;;3.90;;
71080;SDS011;58740;50.672;18.690;2023-06-26T11:54:04;6.40;;;3.70;;
71080;SDS011;58740;50.672;18.690;2023-06-26T11:56:32;6.80;;;3.60;;
71080;SDS011;58740;50.672;18.690;2023-06-26T11:59:08;5.40;;;3.40;;
71080;SDS011;58740;50.672;18.690;2023-06-26T12:01:42;6.20;;;3.60;;
71080;SDS011;58740;50.672;18.690;2023-06-26T12:04:17;6.60;;;3.80;;
71080;SDS011;58740;50.672;18.690;2023-06-26T12:06:49;6.20;;;3.80;;
71080;SDS011;58740;50.672;18.690;2023-06-26T12:09:20;6.20;;;3.80;;
71080;SDS011;58740;50.672;18.690;2023-06-26T12:11:53;6.50;;;3.80;;
71080;SDS011;58740;50.672;18.690;2023-06-26T12:14:23;6.40;;;3.80;;
71080;SDS011;58740;50.672;18.690;2023-06-26T12:16:52;8.00;;;3.60;;
71080;SDS011;58740;50.672;18.690;2023-06-26T12:19:26;12.80;;;8.60;;
71080;SDS011;58740;50.672;18.690;2023-06-26T12:21:55;8.40;;;5.70;;
71080;SDS011;58740;50.672;18.690;2023-06-26T12:24:24;7.30;;;4.30;;
71080;SDS011;58740;50.672;18.690;2023-06-26T12:26:54;8.20;;;3.90;;
71080;SDS011;58740;50.672;18.690;2023-06-26T12:29:34;5.80;;;3.30;;
71080;SDS011;58740;50.672;18.690;2023-06-26T12:32:02;6.50;;;3.70;;
71080;SDS011;58740;50.672;18.690;2023-06-26T12:34:32;6.60;;;3.80;;
71080;SDS011;58740;50.672;18.690;2023-06-26T12:37:06;6.00;;;3.80;;
71080;SDS011;58740;50.672;18.690;2023-06-26T12:39:54;6.20;;;3.70;;
71080;SDS011;58740;50.672;18.690;2023-06-26T12:42:25;6.10;;;3.40;;
71080;SDS011;58740;50.672;18.690;2023-06-26T12:44:54;6.50;;;3.80;;
71080;SDS011;58740;50.672;18.690;2023-06-26T12:47:26;6.00;;;3.60;;
71080;SDS011;58740;50.672;18.690;2023-06-26T12:49:55;6.60;;;3.40;;
71080;SDS011;58740;50.672;18.690;2023-06-26T12:52:25;5.90;;;3.70;;
71080;SDS011;58740;50.672;18.690;2023-06-26T12:54:54;6.80;;;4.20;;
71080;SDS011;58740;50.672;18.690;2023-06-26T12:57:24;7.80;;;4.00;;
71080;SDS011;58740;50.672;18.690;2023-06-26T12:59:53;6.30;;;4.10;;
71080;SDS011;58740;50.672;18.690;2023-06-26T13:02:20;8.00;;;4.40;;
71080;SDS011;58740;50.672;18.690;2023-06-26T13:04:48;6.50;;;3.60;;
71080;SDS011;58740;50.672;18.690;2023-06-26T13:07:16;6.70;;;4.20;;
71080;SDS011;58740;50.672;18.690;2023-06-26T13:09:44;6.50;;;3.60;;
71080;SDS011;58740;50.672;18.690;2023-06-26T13:12:14;6.80;;;3.90;;
71080;SDS011;58740;50.672;18.690;2023-06-26T13:14:42;7.00;;;4.00;;
71080;SDS011;58740;50.672;18.690;2023-06-26T13:17:11;6.40;;;3.80;;
71080;SDS011;58740;50.672;18.690;2023-06-26T13:19:38;6.50;;;3.70;;
71080;SDS011;58740;50.672;18.690;2023-06-26T13:22:06;6.60;;;3.90;;
71080;SDS011;58740;50.672;18.690;2023-06-26T13:24:34;7.40;;;4.10;;
71080;SDS011;58740;50.672;18.690;2023-06-26T13:27:02;6.80;;;4.20;;
71080;SDS011;58740;50.672;18.690;2023-06-26T13:29:31;8.00;;;3.80;;
71080;SDS011;58740;50.672;18.690;2023-06-26T13:31:59;6.30;;;4.10;;
71080;SDS011;58740;50.672;18.690;2023-06-26T13:34:28;6.40;;;3.70;;
71080;SDS011;58740;50.672;18.690;2023-06-26T13:36:56;6.90;;;4.00;;
71080;SDS011;58740;50.672;18.690;2023-06-26T13:39:24;6.70;;;3.70;;
71080;SDS011;58740;50.672;18.690;2023-06-26T13:41:52;6.70;;;3.90;;
71080;SDS011;58740;50.672;18.690;2023-06-26T13:44:20;9.90;;;4.70;;
71080;SDS011;58740;50.672;18.690;2023-06-26T13:47:07;6.40;;;4.10;;
71080;SDS011;58740;50.672;18.690;2023-06-26T13:49:37;7.50;;;3.90;;
71080;SDS011;58740;50.672;18.690;2023-06-26T13:52:05;8.50;;;5.20;;
71080;SDS011;58740;50.672;18.690;2023-06-26T13:54:36;6.10;;;3.90;;
71080;SDS011;58740;50.672;18.690;2023-06-26T13:57:07;7.40;;;4.40;;
71080;SDS011;58740;50.672;18.690;2023-06-26T13:59:37;8.60;;;4.70;;
71080;SDS011;58740;50.672;18.690;2023-06-26T14:02:07;7.10;;;4.40;;
71080;SDS011;58740;50.672;18.690;2023-06-26T14:04:36;7.20;;;4.70;;
71080;SDS011;58740;50.672;18.690;2023-06-26T14:07:05;7.30;;;4.60;;
71080;SDS011;58740;50.672;18.690;2023-06-26T14:09:35;7.90;;;4.60;;
71080;SDS011;58740;50.672;18.690;2023-06-26T14:12:03;7.40;;;4.40;;
71080;SDS011;58740;50.672;18.690;2023-06-26T14:14:31;7.30;;;4.20;;
71080;SDS011;58740;50.672;18.690;2023-06-26T14:16:59;8.70;;;3.90;;
71080;SDS011;58740;50.672;18.690;2023-06-26T14:19:28;7.80;;;4.50;;
71080;SDS011;58740;50.672;18.690;2023-06-26T14:21:55;7.70;;;4.70;;
71080;SDS011;58740;50.672;18.690;2023-06-26T14:24:23;6.50;;;4.10;;
71080;SDS011;58740;50.672;18.690;2023-06-26T14:26:51;6.40;;;4.20;;
71080;SDS011;58740;50.672;18.690;2023-06-26T14:29:19;8.90;;;4.70;;
71080;SDS011;58740;50.672;18.690;2023-06-26T14:31:48;8.10;;;4.70;;
71080;SDS011;58740;50.672;18.690;2023-06-26T14:34:18;7.00;;;4.40;;
71080;SDS011;58740;50.672;18.690;2023-06-26T14:36:46;5.70;;;3.70;;
71080;SDS011;58740;50.672;18.690;2023-06-26T14:39:14;6.10;;;4.00;;
71080;SDS011;58740;50.672;18.690;2023-06-26T14:41:42;7.70;;;5.00;;
71080;SDS011;58740;50.672;18.690;2023-06-26T14:44:10;7.40;;;4.60;;
71080;SDS011;58740;50.672;18.690;2023-06-26T14:46:39;6.70;;;4.10;;
71080;SDS011;58740;50.672;18.690;2023-06-26T14:49:07;10.30;;;4.60;;
71080;SDS011;58740;50.672;18.690;2023-06-26T14:51:35;8.90;;;4.40;;
71080;SDS011;58740;50.672;18.690;2023-06-26T14:54:03;6.50;;;4.10;;
71080;SDS011;58740;50.672;18.690;2023-06-26T14:56:30;7.10;;;4.30;;